NCAR-RAP Real-Time Weather Data

Output produced by METARs form (08 May 2021  16:58 UTC)
found at http://weather.rap.ucar.edu/surface/
 
KATL 081652Z 31007KT 10SM FEW090 BKN200 22/06 A3016 RMK AO2 SLP207 T02220061
KATL 081552Z 31012G19KT 10SM BKN140 20/05 A3017 RMK AO2 SLP212 T02000050
KATL 081452Z 27009KT 10SM FEW049 SCT075 BKN100 19/06 A3015 RMK AO2 SLP208 T01890056 51011 $
KATL 081352Z 29009KT 10SM SCT090 BKN140 BKN250 18/06 A3014 RMK AO2 SLP204 T01830056
KATL 081252Z 27004KT 10SM SCT130 16/05 A3013 RMK AO2 SLP200 T01560050
KATL 081152Z 27003KT 10SM FEW130 14/04 A3012 RMK AO2 SLP196 T01390044 10139 20106 51008
KATL 081052Z 00000KT 10SM SCT110 BKN130 12/04 A3011 RMK AO2 SLP194 T01220039
KATL 080952Z 27006KT 10SM CLR 11/04 A3011 RMK AO2 SLP194 T01060039
KATL 080852Z 28004KT 10SM CLR 11/03 A3010 RMK AO2 SLP189 T01060033 55001
KATL 080752Z 28005KT 10SM CLR 11/04 A3009 RMK AO2 SLP187 T01060039
KATL 080652Z 29007KT 10SM CLR 11/04 A3010 RMK AO2 SLP191 T01110039
KATL 080552Z 29008KT 10SM CLR 12/03 A3010 RMK AO2 SLP190 T01170033 10183 20111 53003
KATL 080452Z 27005KT 10SM CLR 12/03 A3009 RMK AO2 SLP186 T01170033 402060100
KATL 080352Z 28006KT 10SM CLR 12/03 A3008 RMK AO2 SLP185 T01220033
KATL 080252Z 24003KT 10SM CLR 13/04 A3009 RMK AO2 SLP187 T01330039 53009
KATL 080152Z 28005KT 10SM CLR 14/03 A3008 RMK AO2 SLP185 T01440028
KATL 080052Z 32006KT 10SM CLR 17/01 A3007 RMK AO2 SLP180 T01670011
KATL 072352Z 33008KT 10SM CLR 18/01 A3006 RMK AO2 SLP178 T01830006 10206 20183 55001
KATL 072252Z 33011G17KT 10SM CLR 19/00 A3006 RMK AO2 SLP177 T01940000
KATL 072152Z 33013G23KT 10SM CLR 20/00 A3006 RMK AO2 PK WND 34027/2120 SLP177 T02000000
KATL 072052Z 31011G23KT 10SM FEW080 20/01 A3007 RMK AO2 SLP179 T02000006 58011
KATL 071952Z 30014G22KT 10SM FEW080 20/02 A3008 RMK AO2 PK WND 33028/1917 SLP181 T02000017
KATL 071852Z 35018G26KT 10SM FEW080 19/01 A3009 RMK AO2 PK WND 33030/1758 SLP187 T01940006
KATL 071752Z 32019G28KT 10SM FEW075 19/01 A3010 RMK AO2 PK WND 33029/1736 SLP189 T01890006 10194 20111 50000
KATL 071652Z 33022G30KT 10SM FEW070 18/00 A3011 RMK AO2 PK WND 31031/1622 SLP193 T01780000
KATL 071552Z 31014G24KT 10SM FEW060 17/04 A3011 RMK AO2 PK WND 32028/1459 SLP194 T01720039
KATL 071452Z 30015G24KT 10SM FEW038 16/04 A3010 RMK AO2 PK WND 32026/1416 SLP189 T01610044 51013
KATL 071352Z 31010G21KT 10SM FEW022 SCT030 14/07 A3010 RMK AO2 SLP189 T01390067
KATL 071335Z 30014G20KT 10SM SCT023 BKN032 14/07 A3009 RMK AO2 T01390072
KATL 071315Z 30012G19KT 10SM BKN023 13/08 A3009 RMK AO2 T01280078
KATL 071252Z 30011KT 10SM SCT020 13/08 A3008 RMK AO2 SLP185 T01280078
KATL 071152Z 31011KT 10SM FEW020 FEW030 11/07 A3006 RMK AO2 SLP177 T01110072 10133 20100 53019
KATL 071052Z 29009KT 10SM FEW014 10/07 A3003 RMK AO2 SLP168 T01000067
KATL 070952Z 29009KT 10SM CLR 10/07 A3002 RMK AO2 SLP163 T01000067
KATL 070852Z 28009KT 10SM CLR 11/07 A3000 RMK AO2 SLP156 T01060067 55007
KATL 070752Z 30008KT 10SM CLR 12/07 A2999 RMK AO2 SLP153 T01170067
KATL 070652Z 29011KT 10SM CLR 13/07 A3000 RMK AO2 SLP154 T01280067
KATL 070552Z 30009KT 10SM FEW110 13/07 A3002 RMK AO2 SLP163 T01330067 10194 20133 58006
KATL 070452Z 30007KT 10SM BKN110 15/07 A3004 RMK AO2 SLP166 T01500067 402220106
KATL 070352Z 31012KT 10SM SCT110 15/07 A3005 RMK AO2 PK WND 32032/0330 SLP173 T01500067
KATL 070252Z 28008KT 10SM FEW120 16/07 A3004 RMK AO2 SLP170 T01560067 53015
KATL 070152Z 29007KT 10SM FEW200 16/07 A3002 RMK AO2 SLP163 T01610067
KATL 070052Z 29008KT 10SM CLR 18/07 A3001 RMK AO2 SLP160 T01780067
KATL 062352Z 28009KT 10SM CLR 19/07 A3000 RMK AO2 SLP155 T01940067 10222 20194 58003
KATL 062252Z 32012G18KT 10SM CLR 21/06 A3000 RMK AO2 SLP155 T02110056
KATL 062152Z 32011G19KT 10SM CLR 22/05 A3001 RMK AO2 SLP157 T02170050
KATL 062052Z 32011KT 10SM FEW075 FEW200 22/04 A3001 RMK AO2 SLP157 T02220044 57017
KATL 061952Z 33013G23KT 10SM FEW075 FEW200 22/04 A3002 RMK AO2 SLP163 T02170039
KATL 061852Z 31015KT 10SM FEW070 FEW200 22/05 A3004 RMK AO2 SLP168 T02170050
KATL 061752Z 32012KT 10SM FEW065 FEW200 21/06 A3006 RMK AO2 SLP174 T02110061 10211 20117 58013